Time;durP1;ratioP1;P1;durP2;ratioP2;P2;SDS_P1;SDS_P2;PMS_P1;PMS_P2;Temp;Humidity;BMP_temperature;BMP_pressure;BME280_temperature;BME280_humidity;BME280_pressure;Samples;Min_cycle;Max_cycle;Signal;HPM_P1;HPM_P2
2021/12/10 00:00:10;;;;;;;8.26;7.52;;;;;;;9.86;70.88;101346.25;457365;113;923199;-76
2021/12/10 00:01:17;;;;;;;8.56;7.69;;;;;;;9.87;71.00;101353.36;457486;113;922968;-76
2021/12/10 00:02:21;;;;;;;8.54;7.79;;;;;;;9.89;71.06;101358.63;458027;113;922714;-75
2021/12/10 00:03:31;;;;;;;8.12;7.41;;;;;;;9.91;71.05;101357.41;457991;113;923049;-76
2021/12/10 00:04:38;;;;;;;10.08;8.88;;;;;;;9.92;71.01;101356.34;448684;116;923186;-76
2021/12/10 00:05:54;;;;;;;9.39;8.23;;;;;;;9.92;70.94;101361.80;451081;113;923118;-76
2021/12/10 00:07:16;;;;;;;8.38;7.69;;;;;;;9.91;70.88;101353.84;457851;113;922581;-75
2021/12/10 00:08:21;;;;;;;8.54;7.74;;;;;;;9.88;70.89;101356.92;458396;113;922533;-75
2021/12/10 00:09:28;;;;;;;9.15;8.32;;;;;;;9.84;70.89;101361.92;458378;113;923141;-75
2021/12/10 00:10:35;;;;;;;9.07;8.28;;;;;;;9.83;70.96;101359.38;459907;113;922965;-76
2021/12/10 00:11:42;;;;;;;9.05;8.28;;;;;;;9.80;71.05;101357.91;459049;113;922582;-75
2021/12/10 00:12:51;;;;;;;10.65;9.62;;;;;;;9.79;71.22;101356.20;441699;118;922682;-76
2021/12/10 00:13:55;;;;;;;11.36;10.19;;;;;;;9.80;71.40;101360.62;442404;118;923283;-76
2021/12/10 00:14:58;;;;;;;10.78;9.83;;;;;;;9.81;71.44;101359.59;448925;116;922552;-76
2021/12/10 00:16:03;;;;;;;11.00;10.04;;;;;;;9.84;71.42;101359.20;433927;119;928998;-77
2021/12/10 00:17:10;;;;;;;11.48;10.19;;;;;;;9.86;71.38;101361.74;448251;116;930703;-77
2021/12/10 00:18:16;;;;;;;9.94;9.06;;;;;;;9.86;71.46;101368.03;457595;113;922455;-75
2021/12/10 00:19:33;;;;;;;9.50;8.62;;;;;;;9.89;71.46;101361.34;458255;113;923058;-76
2021/12/10 00:20:33;;;;;;;11.14;8.70;;;;;;;9.91;71.40;101359.28;456134;113;922542;-74
2021/12/10 00:21:36;;;;;;;10.04;9.03;;;;;;;9.93;71.40;101359.91;458012;113;923122;-75
2021/12/10 00:22:51;;;;;;;9.94;9.04;;;;;;;9.95;71.42;101363.30;457570;113;922998;-76
2021/12/10 00:23:54;;;;;;;8.53;7.75;;;;;;;9.95;71.34;101364.16;457392;113;923434;-74
2021/12/10 00:24:57;;;;;;;9.68;8.81;;;;;;;9.96;71.20;101356.83;458263;113;923009;-74
2021/12/10 00:26:03;;;;;;;8.45;7.69;;;;;;;9.95;71.11;101363.30;446782;117;923095;-76
2021/12/10 00:27:09;;;;;;;9.72;8.86;;;;;;;9.93;71.13;101362.64;447495;117;922639;-75
2021/12/10 00:28:18;;;;;;;10.04;9.03;;;;;;;9.92;71.19;101361.80;449292;116;922571;-74
2021/12/10 00:29:28;;;;;;;9.59;8.62;;;;;;;10.03;71.34;101365.93;472981;110;947541;-73
2021/12/10 00:30:43;;;;;;;11.60;9.61;;;;;;;9.93;71.38;101357.20;464347;111;922691;-76
2021/12/10 00:32:58;;;;;;;9.93;8.97;;;;;;;9.94;71.37;101361.61;466428;112;923152;-75
2021/12/10 00:34:02;;;;;;;8.92;8.12;;;;;;;9.94;71.41;101361.61;462636;112;923274;-74
2021/12/10 00:35:12;;;;;;;10.42;9.43;;;;;;;9.94;71.38;101358.89;464861;112;922705;-76
2021/12/10 00:36:15;;;;;;;10.57;8.39;;;;;;;9.92;71.30;101361.80;466190;111;923079;-75
2021/12/10 00:37:21;;;;;;;9.18;8.28;;;;;;;9.90;71.39;101358.44;465369;113;923120;-76
2021/12/10 00:38:26;;;;;;;8.64;7.89;;;;;;;9.90;71.49;101360.31;464655;112;925324;-76
2021/12/10 00:39:32;;;;;;;9.25;8.43;;;;;;;9.90;71.54;101361.16;465440;111;923063;-77
2021/12/10 00:40:36;;;;;;;11.49;8.84;;;;;;;9.91;71.56;101364.73;464700;112;930583;-76
2021/12/10 00:41:40;;;;;;;10.70;9.61;;;;;;;9.92;71.64;101350.90;465175;112;923373;-76
2021/12/10 00:42:44;;;;;;;10.24;9.24;;;;;;;9.95;71.59;101360.58;465295;112;930573;-75
2021/12/10 00:43:47;;;;;;;12.22;8.64;;;;;;;9.96;71.61;101356.83;464971;112;922573;-75
2021/12/10 00:44:51;;;;;;;10.61;9.60;;;;;;;9.98;71.63;101355.58;464721;111;923645;-76
2021/12/10 00:45:56;;;;;;;10.66;9.61;;;;;;;10.02;71.58;101353.34;465424;113;923172;-76
2021/12/10 00:47:00;;;;;;;10.39;9.40;;;;;;;10.02;71.52;101356.06;463897;112;922980;-75
2021/12/10 00:48:04;;;;;;;10.01;8.98;;;;;;;10.04;71.51;101353.97;465116;113;923006;-76
2021/12/10 00:49:09;;;;;;;10.32;9.32;;;;;;;10.06;71.52;101360.08;464907;111;923043;-75
2021/12/10 00:50:17;;;;;;;10.69;9.61;;;;;;;10.07;71.34;101350.88;464246;111;930706;-76
2021/12/10 00:51:21;;;;;;;11.06;9.37;;;;;;;10.07;71.33;101347.30;464104;111;922477;-75
2021/12/10 00:52:25;;;;;;;10.11;9.01;;;;;;;10.05;71.31;101348.34;464316;112;923550;-75
2021/12/10 00:53:29;;;;;;;10.44;9.39;;;;;;;10.05;71.27;101353.78;465170;112;922851;-76
2021/12/10 00:54:32;;;;;;;11.26;9.93;;;;;;;10.04;71.26;101354.81;465642;112;930624;-75
2021/12/10 00:55:36;;;;;;;9.59;8.66;;;;;;;10.04;71.23;101345.80;465481;112;922630;-75
2021/12/10 00:56:41;;;;;;;9.54;8.60;;;;;;;10.02;71.30;101351.46;464812;111;930562;-75
2021/12/10 00:57:44;;;;;;;9.89;8.46;;;;;;;10.02;71.33;101351.46;466488;113;922874;-77
2021/12/10 00:58:48;;;;;;;11.07;9.18;;;;;;;10.03;71.41;101352.31;464785;111;923325;-77
2021/12/10 00:59:51;;;;;;;9.66;8.77;;;;;;;10.05;71.32;101355.66;465471;112;930450;-77
2021/12/10 01:00:58;;;;;;;9.93;8.94;;;;;;;10.05;71.32;101355.66;465812;112;930528;-76
2021/12/10 01:02:06;;;;;;;8.73;7.96;;;;;;;10.07;71.39;101358.20;466014;113;922551;-76
2021/12/10 01:03:13;;;;;;;9.51;8.59;;;;;;;10.06;71.33;101357.36;465615;112;923473;-77
2021/12/10 01:04:20;;;;;;;8.80;7.96;;;;;;;10.04;71.24;101359.42;464984;112;922764;-76
2021/12/10 01:05:24;;;;;;;9.42;8.48;;;;;;;10.01;71.37;101355.22;465520;112;922595;-75
2021/12/10 01:06:28;;;;;;;9.57;8.69;;;;;;;10.00;71.46;101350.80;466162;113;923128;-76
2021/12/10 01:07:34;;;;;;;9.35;8.49;;;;;;;10.01;71.51;101359.82;465677;111;922895;-75
2021/12/10 01:08:41;;;;;;;9.47;8.55;;;;;;;10.01;71.54;101354.37;465427;112;922596;-76
2021/12/10 01:09:48;;;;;;;9.88;8.86;;;;;;;10.00;71.49;101361.69;465383;112;922464;-76
2021/12/10 01:10:55;;;;;;;9.18;8.28;;;;;;;9.99;71.39;101350.98;464161;112;922409;-76
2021/12/10 01:12:05;;;;;;;9.10;8.18;;;;;;;9.95;71.39;101357.86;464334;111;923106;-75
2021/12/10 01:13:14;;;;;;;8.94;8.03;;;;;;;9.91;71.43;101368.30;464885;112;923100;-76
2021/12/10 01:14:24;;;;;;;10.54;8.18;;;;;;;9.88;71.59;101357.77;465670;112;922819;-76
2021/12/10 01:15:41;;;;;;;7.83;7.13;;;;;;;9.86;71.66;101359.02;465078;111;922994;-75
2021/12/10 01:26:26;;;;;;;8.57;7.66;;;;;;;9.68;72.57;101364.86;465048;112;922661;-75
2021/12/10 01:27:28;;;;;;;8.55;7.69;;;;;;;9.67;72.59;101370.48;462614;112;922470;-75
2021/12/10 01:28:22;;;;;;;8.29;7.29;;;;;;;9.65;72.63;101367.13;462289;112;922466;-76
2021/12/10 01:29:35;;;;;;;7.94;7.05;;;;;;;9.63;72.71;101367.31;464940;112;923138;-76
2021/12/10 01:30:40;;;;;;;8.19;7.49;;;;;;;9.63;72.82;101368.16;465346;112;922647;-75
2021/12/10 01:31:45;;;;;;;7.82;7.10;;;;;;;9.65;72.88;101369.86;465456;111;923844;-75
2021/12/10 01:32:55;;;;;;;8.19;7.44;;;;;;;9.67;72.94;101367.77;464193;112;923215;-76
2021/12/10 01:33:59;;;;;;;8.31;7.54;;;;;;;9.68;72.99;101369.46;463409;111;930506;-77
2021/12/10 01:35:05;;;;;;;8.08;7.28;;;;;;;9.70;72.96;101375.58;464720;112;922554;-74
2021/12/10 01:36:10;;;;;;;8.10;7.36;;;;;;;9.71;73.01;101377.23;465645;112;923388;-76
2021/12/10 01:37:13;;;;;;;8.69;7.95;;;;;;;9.72;73.04;101374.33;465708;112;922583;-76
2021/12/10 01:38:17;;;;;;;8.19;7.44;;;;;;;9.75;73.06;101379.42;464813;111;922667;-76
2021/12/10 01:39:23;;;;;;;8.33;7.52;;;;;;;9.78;73.09;101381.75;466260;112;930622;-77
2021/12/10 01:40:29;;;;;;;7.93;7.02;;;;;;;9.80;73.07;101378.84;465132;111;922682;-76
2021/12/10 01:41:37;;;;;;;7.97;7.22;;;;;;;9.82;72.94;101374.88;464728;112;922814;-76
2021/12/10 01:42:46;;;;;;;8.41;7.63;;;;;;;9.84;72.88;101382.87;464952;111;922634;-75
2021/12/10 01:43:51;;;;;;;8.74;7.86;;;;;;;9.84;72.89;101375.55;463966;111;922589;-76
2021/12/10 01:44:58;;;;;;;7.92;7.11;;;;;;;9.87;72.88;101382.47;464509;112;922936;-76
2021/12/10 01:46:07;;;;;;;8.35;7.65;;;;;;;9.89;72.91;101374.97;463734;113;922962;-75
2021/12/10 01:47:11;;;;;;;7.98;7.14;;;;;;;9.91;72.86;101376.48;464251;113;923106;-75
2021/12/10 01:48:18;;;;;;;8.36;7.24;;;;;;;9.95;72.76;101382.37;464396;112;922507;-75
2021/12/10 01:49:22;;;;;;;9.92;7.89;;;;;;;9.96;72.64;101373.17;463220;111;923141;-75
2021/12/10 01:50:27;;;;;;;9.25;8.06;;;;;;;9.97;72.61;101374.87;464443;112;922716;-76
2021/12/10 01:51:33;;;;;;;7.77;7.07;;;;;;;9.99;72.60;101378.22;465025;112;922494;-76
2021/12/10 01:52:37;;;;;;;8.11;7.33;;;;;;;10.00;72.56;101380.77;465903;111;922487;-75
2021/12/10 01:53:42;;;;;;;8.71;7.76;;;;;;;10.01;72.42;101378.89;465477;112;922605;-75
2021/12/10 01:54:49;;;;;;;8.08;7.28;;;;;;;10.02;72.37;101377.86;465112;112;922506;-75
2021/12/10 01:55:55;;;;;;;8.48;7.78;;;;;;;10.04;72.37;101375.77;465706;111;922624;-75
2021/12/10 01:57:02;;;;;;;8.64;7.83;;;;;;;10.05;72.29;101377.46;466018;111;923114;-76
2021/12/10 01:58:07;;;;;;;8.28;7.51;;;;;;;10.04;72.24;101382.06;465034;112;922576;-76
2021/12/10 01:59:13;;;;;;;8.57;7.61;;;;;;;10.05;72.20;101378.31;464620;112;922737;-76
2021/12/10 02:00:20;;;;;;;10.36;7.79;;;;;;;10.05;72.14;101370.13;465192;112;922531;-74
2021/12/10 02:01:31;;;;;;;8.46;7.67;;;;;;;10.07;72.06;101372.67;464684;111;922607;-74
2021/12/10 02:02:39;;;;;;;8.93;8.08;;;;;;;10.07;72.06;101375.40;464834;112;922980;-78
2021/12/10 02:03:44;;;;;;;8.76;7.96;;;;;;;10.07;71.98;101375.40;464548;112;923136;-74
2021/12/10 02:04:48;;;;;;;8.47;7.71;;;;;;;10.07;71.98;101380.84;465202;112;922769;-75
2021/12/10 02:05:52;;;;;;;8.42;7.70;;;;;;;10.07;71.91;101371.83;465035;112;922920;-74
2021/12/10 02:06:56;;;;;;;8.16;7.39;;;;;;;10.07;71.71;101385.45;464126;112;923190;-76
2021/12/10 02:08:00;;;;;;;8.24;7.34;;;;;;;10.03;71.83;101383.09;464295;112;930686;-74
2021/12/10 02:09:05;;;;;;;8.85;8.00;;;;;;;10.02;71.84;101377.86;464949;113;923190;-74
2021/12/10 02:10:11;;;;;;;8.82;7.78;;;;;;;10.00;71.89;101378.04;464482;111;930521;-73
2021/12/10 02:11:15;;;;;;;9.15;7.49;;;;;;;10.00;71.84;101385.37;464369;113;923470;-74
2021/12/10 02:12:19;;;;;;;8.52;7.70;;;;;;;9.98;71.86;101381.98;463866;113;923075;-74
2021/12/10 02:13:23;;;;;;;8.16;7.46;;;;;;;9.96;71.87;101390.37;464473;112;922913;-73
2021/12/10 02:14:26;;;;;;;9.26;8.33;;;;;;;9.95;71.88;101388.67;465504;111;930839;-75
2021/12/10 02:15:29;;;;;;;8.51;7.72;;;;;;;9.95;71.88;101394.12;464017;112;930580;-75
2021/12/10 02:16:33;;;;;;;8.86;8.06;;;;;;;9.93;71.76;101381.71;465620;113;922935;-74
2021/12/10 02:17:40;;;;;;;8.54;7.74;;;;;;;9.91;71.65;101389.25;465992;111;930639;-75
2021/12/10 02:18:43;;;;;;;9.51;8.20;;;;;;;9.87;71.69;101387.92;465571;111;922563;-73
2021/12/10 02:19:47;;;;;;;8.84;8.04;;;;;;;9.83;71.66;101387.47;465267;111;923155;-75
2021/12/10 02:21:05;;;;;;;8.63;7.76;;;;;;;9.80;71.74;101389.73;464812;111;923129;-74
2021/12/10 02:22:09;;;;;;;7.93;7.22;;;;;;;9.77;71.83;101384.66;465390;112;923063;-73
2021/12/10 02:23:13;;;;;;;8.04;7.37;;;;;;;9.74;72.02;101390.49;464760;111;923242;-74
2021/12/10 02:24:18;;;;;;;8.39;7.64;;;;;;;9.72;72.13;101382.50;465200;112;922899;-73
2021/12/10 02:25:24;;;;;;;8.18;7.49;;;;;;;9.71;72.13;101386.25;465116;112;922642;-74
2021/12/10 02:26:34;;;;;;;8.13;7.39;;;;;;;9.71;72.29;101388.13;465329;112;922847;-74
2021/12/10 02:27:38;;;;;;;8.26;7.51;;;;;;;9.73;72.41;101383.35;465279;112;922616;-75
2021/12/10 02:28:43;;;;;;;7.31;6.64;;;;;;;9.75;72.45;101389.47;464878;111;922691;-75
2021/12/10 02:29:47;;;;;;;8.52;7.66;;;;;;;9.76;72.47;101386.53;464885;112;922651;-73
2021/12/10 02:30:50;;;;;;;7.74;7.03;;;;;;;9.79;72.43;101385.31;465058;112;922978;-75
2021/12/10 02:31:54;;;;;;;8.29;7.20;;;;;;;9.80;72.36;101390.58;464659;112;922729;-74
2021/12/10 02:32:57;;;;;;;8.95;8.18;;;;;;;9.84;72.34;101391.04;463855;112;930504;-75
2021/12/10 02:34:02;;;;;;;8.62;7.28;;;;;;;9.85;72.30;101392.73;464115;112;922690;-76
2021/12/10 02:35:10;;;;;;;8.11;7.36;;;;;;;9.86;72.19;101392.55;465203;112;923565;-76
2021/12/10 02:36:14;;;;;;;8.43;7.73;;;;;;;9.87;72.07;101391.48;465650;112;923002;-74
2021/12/10 02:37:17;;;;;;;8.84;7.97;;;;;;;9.87;72.01;101398.81;464542;111;922989;-76
2021/12/10 02:38:22;;;;;;;8.31;7.52;;;;;;;9.87;71.95;101402.38;465203;112;922572;-75
2021/12/10 02:39:27;;;;;;;8.40;7.65;;;;;;;9.87;71.87;101401.53;466086;111;924670;-74
2021/12/10 02:40:33;;;;;;;8.54;7.73;;;;;;;9.86;71.85;101403.45;465015;112;922815;-74
2021/12/10 02:41:37;;;;;;;8.37;7.54;;;;;;;9.83;71.93;101401.09;464985;112;922992;-73
2021/12/10 02:42:40;;;;;;;7.39;6.79;;;;;;;9.84;72.02;101407.38;465403;113;922668;-74
2021/12/10 02:43:45;;;;;;;7.96;7.19;;;;;;;9.86;72.09;101406.17;465926;113;923075;-74
2021/12/10 02:44:48;;;;;;;8.24;7.05;;;;;;;9.86;72.08;101403.45;464588;112;923204;-76
2021/12/10 02:45:54;;;;;;;8.51;7.34;;;;;;;9.89;72.06;101400.33;464585;112;923179;-73
2021/12/10 02:46:58;;;;;;;7.56;6.84;;;;;;;9.92;72.03;101412.73;464890;111;922717;-75
2021/12/10 02:48:02;;;;;;;8.08;7.36;;;;;;;9.94;71.99;101414.22;465373;113;922577;-76
2021/12/10 02:49:07;;;;;;;8.06;7.16;;;;;;;9.96;71.89;101409.44;464473;112;923072;-76
2021/12/10 02:50:14;;;;;;;7.79;7.12;;;;;;;9.98;71.79;101411.95;464509;112;922918;-75
2021/12/10 02:51:17;;;;;;;7.91;7.16;;;;;;;9.99;71.62;101410.92;464087;113;922748;-73
2021/12/10 02:52:23;;;;;;;7.71;6.95;;;;;;;9.98;71.49;101415.52;464743;112;922682;-75
2021/12/10 02:53:29;;;;;;;8.11;6.63;;;;;;;9.98;71.39;101414.67;463989;112;930575;-75
2021/12/10 02:54:34;;;;;;;8.81;7.18;;;;;;;9.97;71.39;101416.58;463497;112;922657;-74
2021/12/10 02:55:37;;;;;;;7.90;7.27;;;;;;;9.97;71.37;101421.19;463439;111;923025;-75
2021/12/10 02:56:41;;;;;;;7.79;6.99;;;;;;;9.97;71.24;101421.19;465186;112;923093;-74
2021/12/10 02:57:47;;;;;;;8.73;7.79;;;;;;;9.96;71.23;101416.76;465947;112;923246;-75
2021/12/10 02:58:53;;;;;;;7.88;6.94;;;;;;;9.91;71.17;101422.78;465629;113;922540;-76
2021/12/10 02:59:57;;;;;;;7.64;7.03;;;;;;;9.90;71.23;101414.80;465789;111;922982;-74
2021/12/10 03:01:07;;;;;;;8.33;7.54;;;;;;;9.89;71.31;101421.27;465713;111;923108;-73
2021/12/10 03:02:14;;;;;;;7.69;7.09;;;;;;;9.88;71.43;101423.14;465232;112;931048;-75
2021/12/10 03:03:18;;;;;;;7.40;6.78;;;;;;;9.89;71.48;101419.39;464431;112;922983;-75
2021/12/10 03:04:22;;;;;;;7.97;7.18;;;;;;;9.90;71.51;101418.37;465038;111;922702;-75
2021/12/10 03:05:25;;;;;;;7.74;7.02;;;;;;;9.94;71.46;101424.27;465418;112;930703;-74
2021/12/10 03:06:30;;;;;;;7.67;6.96;;;;;;;9.95;71.43;101420.52;465281;112;930611;-74
2021/12/10 03:07:36;;;;;;;8.24;7.49;;;;;;;9.96;71.36;101416.76;464932;112;930649;-76
2021/12/10 03:08:43;;;;;;;7.91;7.21;;;;;;;9.97;71.33;101419.30;465164;112;922592;-75
2021/12/10 03:09:50;;;;;;;9.76;7.12;;;;;;;9.99;71.23;101424.54;464931;112;922577;-73
2021/12/10 03:10:53;;;;;;;7.95;7.14;;;;;;;10.00;71.12;101423.51;464000;111;922723;-75
2021/12/10 03:11:58;;;;;;;7.65;6.90;;;;;;;9.99;71.06;101424.54;464039;111;922657;-75
2021/12/10 03:13:03;;;;;;;9.04;7.16;;;;;;;9.99;71.03;101421.81;465086;112;922636;-75
2021/12/10 03:14:10;;;;;;;7.41;6.78;;;;;;;9.98;70.97;101429.14;464210;111;923132;-75
2021/12/10 03:15:16;;;;;;;7.23;6.39;;;;;;;9.99;70.97;101424.54;464850;112;923380;-76
2021/12/10 03:16:22;;;;;;;7.66;6.82;;;;;;;10.00;70.97;101423.51;464777;111;923047;-74
2021/12/10 03:17:29;;;;;;;7.16;6.56;;;;;;;10.00;70.87;101424.36;465703;112;922696;-74
2021/12/10 03:18:33;;;;;;;7.01;6.31;;;;;;;9.98;70.72;101425.56;465096;112;922619;-75
2021/12/10 03:19:37;;;;;;;6.56;6.01;;;;;;;9.95;70.67;101428.69;465313;112;922976;-75
2021/12/10 03:20:40;;;;;;;7.73;6.92;;;;;;;9.92;70.71;101432.63;465257;111;922580;-76
2021/12/10 03:21:45;;;;;;;7.62;6.28;;;;;;;9.87;70.74;101432.34;465267;111;922559;-76
2021/12/10 03:22:48;;;;;;;7.35;6.70;;;;;;;9.87;70.74;101432.34;464216;111;930613;-75
2021/12/10 03:23:52;;;;;;;8.42;6.92;;;;;;;9.88;70.87;101435.92;465464;112;922620;-75
2021/12/10 03:24:55;;;;;;;7.85;7.14;;;;;;;9.87;70.83;101443.24;464972;112;923097;-73
2021/12/10 03:25:59;;;;;;;7.29;6.62;;;;;;;9.87;70.89;101439.67;465011;113;922855;-76
2021/12/10 03:27:05;;;;;;;8.40;7.56;;;;;;;9.88;70.88;101435.92;465123;111;930598;-76
2021/12/10 03:28:10;;;;;;;7.48;6.84;;;;;;;9.87;70.83;101435.07;465078;112;922855;-78
2021/12/10 03:29:13;;;;;;;7.61;6.91;;;;;;;9.86;70.83;101438.01;465110;112;922692;-76
2021/12/10 03:30:20;;;;;;;7.96;7.16;;;;;;;9.85;70.93;101428.98;464793;111;923101;-75
2021/12/10 03:31:25;;;;;;;9.17;7.36;;;;;;;9.86;70.91;101432.56;464350;113;922675;-75
2021/12/10 03:32:30;;;;;;;10.78;8.59;;;;;;;9.88;70.85;101433.20;463820;111;922649;-75
2021/12/10 03:33:35;;;;;;;9.88;8.29;;;;;;;9.88;70.83;101436.77;464035;112;923146;-74
2021/12/10 03:34:40;;;;;;;9.61;8.78;;;;;;;9.90;70.77;101436.59;464808;113;923392;-72
2021/12/10 03:35:47;;;;;;;9.96;8.99;;;;;;;9.90;70.67;101426.54;463770;112;922699;-76
2021/12/10 03:36:52;;;;;;;10.44;9.43;;;;;;;9.91;70.59;101432.83;456537;114;922767;-73
2021/12/10 03:37:58;;;;;;;11.33;10.29;;;;;;;9.90;70.59;101428.41;458158;112;923142;-74
2021/12/10 03:39:04;;;;;;;11.72;10.62;;;;;;;9.91;70.59;101430.11;465999;111;922585;-76
2021/12/10 03:40:10;;;;;;;13.49;12.12;;;;;;;9.90;70.58;101429.27;464621;111;922604;-75
2021/12/10 03:41:14;;;;;;;14.01;12.82;;;;;;;9.90;70.49;101434.71;464176;112;923144;-73
2021/12/10 03:42:19;;;;;;;15.26;13.85;;;;;;;9.90;70.47;101431.98;465985;112;922632;-75
2021/12/10 03:43:23;;;;;;;15.78;14.02;;;;;;;9.91;70.43;101430.11;465538;112;930433;-76
2021/12/10 03:44:27;;;;;;;15.75;14.32;;;;;;;9.91;70.33;101438.28;465335;112;923528;-76
2021/12/10 03:45:34;;;;;;;15.11;13.79;;;;;;;9.89;70.27;101438.46;465104;112;922504;-77
2021/12/10 03:46:37;;;;;;;15.41;13.94;;;;;;;9.89;70.27;101443.91;465106;113;922638;-73
2021/12/10 03:47:41;;;;;;;14.07;12.73;;;;;;;9.88;70.26;101441.37;465096;111;923030;-74
2021/12/10 03:48:46;;;;;;;12.17;10.86;;;;;;;9.87;70.25;101443.24;464949;112;923040;-74
2021/12/10 03:49:49;;;;;;;12.46;11.46;;;;;;;9.86;70.16;101444.30;464094;112;930525;-75
2021/12/10 03:50:55;;;;;;;12.31;10.83;;;;;;;9.86;70.09;101448.91;465151;111;923317;-74
2021/12/10 03:51:58;;;;;;;12.42;11.24;;;;;;;9.85;70.08;101447.20;464089;112;922604;-74
2021/12/10 03:53:03;;;;;;;15.57;13.99;;;;;;;9.82;70.13;101442.97;462686;112;930503;-74
2021/12/10 03:54:07;;;;;;;15.82;13.94;;;;;;;9.80;70.16;101453.23;463375;112;922982;-74
2021/12/10 03:55:11;;;;;;;16.58;14.88;;;;;;;9.77;70.15;101450.86;465683;113;930535;-73
2021/12/10 03:56:19;;;;;;;12.83;11.68;;;;;;;9.74;70.20;101451.25;464842;112;922771;-75
2021/12/10 03:57:23;;;;;;;9.44;8.57;;;;;;;9.71;70.36;101448.89;464410;112;923016;-74
2021/12/10 03:58:27;;;;;;;12.01;10.24;;;;;;;9.70;70.41;101454.55;465507;111;922612;-74
2021/12/10 03:59:30;;;;;;;9.49;8.74;;;;;;;9.70;70.45;101454.55;465753;111;923028;-75
2021/12/10 04:00:37;;;;;;;8.29;7.52;;;;;;;9.70;70.54;101451.82;464053;111;922579;-72
2021/12/10 04:01:46;;;;;;;7.97;7.10;;;;;;;9.71;70.59;101453.48;464572;112;922932;-74
2021/12/10 04:02:50;;;;;;;7.54;6.84;;;;;;;9.72;70.58;101460.63;464891;112;922588;-74
2021/12/10 04:03:55;;;;;;;8.21;7.06;;;;;;;9.74;70.53;101458.58;465403;111;922566;-75
2021/12/10 04:04:59;;;;;;;7.37;6.66;;;;;;;9.74;70.45;101467.59;464855;112;922677;-73
2021/12/10 04:06:03;;;;;;;9.38;7.13;;;;;;;9.74;70.39;101462.14;464602;112;922505;-75
2021/12/10 04:07:10;;;;;;;10.78;6.93;;;;;;;9.74;70.35;101461.30;465012;112;930563;-72
2021/12/10 04:08:14;;;;;;;7.68;6.92;;;;;;;9.72;70.24;101468.80;464316;111;922910;-74
2021/12/10 04:09:17;;;;;;;6.86;6.23;;;;;;;9.69;70.22;101464.59;464368;111;923110;-75
2021/12/10 04:10:22;;;;;;;7.17;5.88;;;;;;;9.66;70.17;101464.95;456669;114;923105;-75
2021/12/10 04:11:26;;;;;;;6.59;5.79;;;;;;;9.61;70.22;101470.96;456912;112;923069;-73
2021/12/10 04:12:29;;;;;;;6.95;5.94;;;;;;;9.56;70.31;101470.67;464539;111;923013;-74
2021/12/10 04:13:33;;;;;;;7.73;6.31;;;;;;;9.56;70.48;101469.83;464668;113;922676;-74
2021/12/10 04:14:37;;;;;;;6.21;5.61;;;;;;;9.53;70.51;101462.89;464602;111;923414;-74
2021/12/10 04:15:41;;;;;;;6.32;5.72;;;;;;;9.53;70.60;101465.62;463922;113;923281;-73
2021/12/10 04:16:53;;;;;;;6.79;6.01;;;;;;;9.53;70.68;101475.66;466117;112;922548;-73
2021/12/10 04:17:54;;;;;;;6.48;5.90;;;;;;;9.53;70.63;101473.79;464777;111;922635;-75
2021/12/10 04:19:00;;;;;;;8.39;6.05;;;;;;;9.53;70.66;101470.22;465616;112;922628;-75
2021/12/10 04:20:05;;;;;;;7.61;6.69;;;;;;;9.52;70.69;101466.64;465140;112;922534;-75
2021/12/10 04:21:09;;;;;;;7.53;6.83;;;;;;;9.52;70.68;101469.37;465275;112;922614;-75
2021/12/10 04:22:14;;;;;;;8.02;7.16;;;;;;;9.51;70.64;101473.12;465895;111;922920;-75
2021/12/10 04:23:19;;;;;;;8.23;7.42;;;;;;;9.51;70.70;101477.71;465542;112;922681;-74
2021/12/10 04:24:26;;;;;;;7.33;6.44;;;;;;;9.49;70.72;101472.45;464734;112;922584;-73
2021/12/10 04:25:29;;;;;;;8.80;7.16;;;;;;;9.47;70.71;101471.80;464899;112;922962;-75
2021/12/10 04:26:32;;;;;;;7.20;6.29;;;;;;;9.45;70.72;101473.86;464963;112;922879;-74
2021/12/10 04:27:36;;;;;;;9.58;6.76;;;;;;;9.44;70.85;101472.16;465216;112;923217;-75
2021/12/10 04:28:40;;;;;;;8.03;7.26;;;;;;;9.45;71.01;101479.30;465114;112;922785;-75
2021/12/10 04:29:46;;;;;;;8.92;7.64;;;;;;;9.45;71.05;101481.17;465014;112;922955;-73
2021/12/10 04:30:51;;;;;;;10.82;9.73;;;;;;;9.46;71.13;101475.55;465094;112;930789;-76
2021/12/10 04:31:56;;;;;;;14.04;12.71;;;;;;;9.49;71.12;101474.31;464680;112;922670;-71
2021/12/10 04:32:59;;;;;;;15.79;14.07;;;;;;;9.51;71.03;101470.39;464285;112;922586;-75
2021/12/10 04:34:03;;;;;;;27.93;19.15;;;;;;;9.53;71.01;101473.79;464495;112;922986;-76
2021/12/10 04:35:10;;;;;;;29.27;21.20;;;;;;;9.55;70.97;101470.86;464964;112;922839;-76
2021/12/10 04:36:16;;;;;;;31.07;19.01;;;;;;;9.58;70.93;101473.22;463860;111;923024;-75
2021/12/10 04:37:21;;;;;;;23.72;19.24;;;;;;;9.59;70.90;101475.73;463962;112;923059;-75
2021/12/10 04:38:27;;;;;;;22.67;19.18;;;;;;;9.62;70.88;101480.83;464211;112;922675;-74
2021/12/10 04:39:30;;;;;;;20.36;17.97;;;;;;;9.65;70.91;101479.59;464426;112;922607;-75
2021/12/10 04:40:34;;;;;;;17.92;16.14;;;;;;;9.68;70.88;101490.13;465122;112;922739;-73
2021/12/10 04:41:38;;;;;;;17.13;14.05;;;;;;;9.69;70.82;101477.36;465633;112;930523;-75
2021/12/10 04:42:41;;;;;;;17.89;14.61;;;;;;;9.70;70.68;101487.23;465636;112;922558;-73
2021/12/10 04:43:47;;;;;;;14.87;12.46;;;;;;;9.69;70.63;101474.64;466469;111;923213;-72
2021/12/10 04:44:56;;;;;;;14.41;12.86;;;;;;;9.67;70.61;101485.70;465022;111;922887;-74
2021/12/10 04:46:00;;;;;;;12.83;11.59;;;;;;;9.65;70.67;101479.59;465059;112;923019;-73
2021/12/10 04:47:04;;;;;;;14.82;13.14;;;;;;;9.65;70.60;101487.76;465802;112;922622;-75
2021/12/10 04:48:08;;;;;;;11.83;10.70;;;;;;;9.63;70.64;101476.23;466002;112;922952;-75
2021/12/10 04:49:13;;;;;;;14.59;13.09;;;;;;;9.60;70.61;101477.44;465385;112;922623;-77
2021/12/10 04:50:20;;;;;;;11.57;10.47;;;;;;;9.59;70.52;101491.25;464332;112;930453;-72
2021/12/10 04:51:27;;;;;;;12.87;11.49;;;;;;;9.55;70.47;101485.31;464932;112;922599;-75
2021/12/10 04:52:31;;;;;;;18.34;13.92;;;;;;;9.52;70.52;101485.70;464465;112;922989;-73
2021/12/10 04:53:34;;;;;;;13.31;11.57;;;;;;;9.49;70.59;101486.06;464404;111;922765;-75
2021/12/10 04:54:38;;;;;;;10.84;9.64;;;;;;;9.47;70.66;101485.42;464774;113;924125;-74
2021/12/10 04:55:42;;;;;;;13.62;11.19;;;;;;;9.46;70.69;101493.77;464441;112;922647;-74
2021/12/10 04:56:47;;;;;;;12.69;9.95;;;;;;;9.44;70.74;101493.09;465005;112;922539;-76
2021/12/10 04:57:51;;;;;;;11.89;9.91;;;;;;;9.43;70.72;101496.83;464034;111;922562;-74
2021/12/10 04:58:56;;;;;;;10.27;8.39;;;;;;;9.41;70.72;101491.60;464952;112;922964;-74
2021/12/10 04:59:59;;;;;;;9.89;8.53;;;;;;;9.39;70.76;101493.65;465256;112;922401;-73
2021/12/10 05:01:03;;;;;;;9.76;8.35;;;;;;;9.38;70.86;101502.84;465460;111;927995;-74
2021/12/10 05:02:10;;;;;;;8.25;7.45;;;;;;;9.37;70.93;101497.60;464998;112;922540;-74
2021/12/10 05:03:15;;;;;;;9.37;8.32;;;;;;;9.36;70.92;101501.34;464807;112;922564;-72
2021/12/10 05:04:19;;;;;;;8.63;7.59;;;;;;;9.34;70.92;101498.80;464687;112;923104;-74
2021/12/10 05:05:22;;;;;;;10.09;7.69;;;;;;;9.33;71.01;101502.55;465545;112;923161;-74
2021/12/10 05:06:26;;;;;;;7.45;6.58;;;;;;;9.33;71.06;101501.70;465137;112;923229;-72
2021/12/10 05:07:32;;;;;;;6.67;6.08;;;;;;;9.32;71.09;101495.41;464903;112;922880;-74
2021/12/10 05:08:37;;;;;;;10.20;7.82;;;;;;;9.32;71.08;101502.75;465284;112;923096;-75
2021/12/10 05:09:41;;;;;;;8.71;7.72;;;;;;;9.32;71.10;101502.75;464052;111;922807;-73
2021/12/10 05:10:45;;;;;;;9.48;7.13;;;;;;;9.31;71.16;101501.91;464233;111;922772;-74
2021/12/10 05:11:49;;;;;;;8.67;7.80;;;;;;;9.32;71.25;101503.58;464828;112;930861;-75